createdAt,value
2023-04-30T00:00:57.254Z,100682.78
2023-04-30T00:01:59.854Z,100683.91
2023-04-30T00:03:02.324Z,100686.91
2023-04-30T00:04:04.926Z,100686.91
2023-04-30T00:05:07.552Z,100696.03
2023-04-30T00:06:09.801Z,100693.53
2023-04-30T00:07:12.318Z,100689.09
2023-04-30T00:08:14.628Z,100689.09
2023-04-30T00:09:16.937Z,100690.78
2023-04-30T00:10:19.286Z,100687.41
2023-04-30T00:11:21.718Z,100694.88
2023-04-30T00:12:24.232Z,100687.41
2023-04-30T00:13:26.545Z,100689.56
2023-04-30T00:14:28.774Z,100695.97
2023-04-30T00:15:31.395Z,100694.28
2023-04-30T00:16:33.743Z,100691.53
2023-04-30T00:17:36.069Z,100698.97
2023-04-30T00:18:39.304Z,100698.97
2023-04-30T00:19:41.953Z,100698.13
2023-04-30T00:20:44.183Z,100701.13
2023-04-30T00:21:46.772Z,100694.78
2023-04-30T00:22:49.038Z,100705.00
2023-04-30T00:23:51.249Z,100706.06
2023-04-30T00:24:53.636Z,100703.31
2023-04-30T00:25:55.923Z,100704.16
2023-04-30T00:26:58.227Z,100708.00
2023-04-30T00:28:00.569Z,100705.50
2023-04-30T00:29:03.207Z,100702.75
2023-04-30T00:30:06.252Z,100710.16
2023-04-30T00:31:09.501Z,100705.75
2023-04-30T00:32:11.971Z,100710.69
2023-04-30T00:33:14.356Z,100709.00
2023-04-30T00:34:16.675Z,100704.59
2023-04-30T00:35:18.945Z,100712.03
2023-04-30T00:36:22.052Z,100707.81
2023-04-30T00:37:24.375Z,100711.66
2023-04-30T00:38:26.668Z,100708.09
2023-04-30T00:39:28.932Z,100702.81
2023-04-30T00:40:31.356Z,100713.88
2023-04-30T00:41:35.851Z,100717.97
2023-04-30T00:42:38.210Z,100712.69
2023-04-30T00:43:40.569Z,100714.84
2023-04-30T00:44:42.824Z,100713.19
2023-04-30T00:45:45.345Z,100720.00
2023-04-30T00:46:47.717Z,100712.78
2023-04-30T00:47:50.838Z,100722.19
2023-04-30T00:48:53.272Z,100717.75
2023-04-30T00:49:55.879Z,100716.31
2023-04-30T00:50:58.746Z,100724.84
2023-04-30T00:52:02.094Z,100719.81
2023-04-30T00:53:04.849Z,100726.44
2023-04-30T00:54:07.934Z,100730.53
2023-04-30T00:55:13.965Z,100725.25
2023-04-30T00:56:19.101Z,100719.97
2023-04-30T00:57:22.206Z,100732.34
2023-04-30T00:58:24.514Z,100724.06
2023-04-30T00:59:27.377Z,100728.16
2023-04-30T01:00:30.160Z,100735.88
2023-04-30T01:01:32.494Z,100728.66
2023-04-30T01:02:35.817Z,100730.81
2023-04-30T01:03:38.805Z,100732.16
2023-04-30T01:04:41.594Z,100731.56
2023-04-30T01:05:43.835Z,100734.59
2023-04-30T01:06:46.845Z,100733.16
2023-04-30T01:07:51.000Z,100743.59
2023-04-30T01:08:54.146Z,100740.00
2023-04-30T01:09:56.549Z,100737.72
2023-04-30T01:11:28.879Z,100740.72
2023-04-30T01:12:49.977Z,100748.66
2023-04-30T01:14:10.683Z,100746.97
2023-04-30T01:15:36.751Z,100752.41
2023-04-30T01:16:53.226Z,100749.28
2023-04-30T01:18:04.804Z,100745.09
2023-04-30T01:19:27.309Z,100752.19
2023-04-30T01:20:31.219Z,100750.78
2023-04-30T01:21:35.712Z,100747.41
2023-04-30T01:23:01.348Z,100747.03
2023-04-30T01:24:24.766Z,100747.53
2023-04-30T01:25:39.557Z,100746.34
2023-04-30T01:26:51.825Z,100751.50
2023-04-30T01:28:07.558Z,100754.78
2023-04-30T01:29:13.272Z,100752.47
2023-04-30T01:30:17.358Z,100761.25
2023-04-30T01:31:20.269Z,100760.88
2023-04-30T01:32:22.575Z,100763.06
2023-04-30T01:33:25.571Z,100762.44
2023-04-30T01:34:27.810Z,100754.66
2023-04-30T01:35:36.476Z,100769.78
2023-04-30T01:37:03.691Z,100766.66
2023-04-30T01:38:33.885Z,100765.22
2023-04-30T01:39:38.966Z,100768.44
2023-04-30T01:40:48.229Z,100769.75
2023-04-30T01:42:11.749Z,100769.41
2023-04-30T01:43:31.345Z,100770.72
2023-04-30T01:44:48.807Z,100776.69
2023-04-30T01:46:12.798Z,100773.59
2023-04-30T01:47:31.063Z,100771.31
2023-04-30T01:48:43.784Z,100780.91
2023-04-30T01:50:04.063Z,100783.06
2023-04-30T01:51:15.285Z,100779.91
2023-04-30T01:52:33.115Z,100787.56
2023-04-30T01:53:43.357Z,100784.22
2023-04-30T01:55:00.417Z,100788.53
2023-04-30T01:56:05.949Z,100787.09
2023-04-30T01:57:16.686Z,100799.41
2023-04-30T01:58:22.835Z,100798.81
2023-04-30T01:59:25.538Z,100789.09
2023-04-30T02:00:30.781Z,100797.59
2023-04-30T02:01:33.723Z,100793.41
2023-04-30T02:02:36.709Z,100799.97
2023-04-30T02:03:39.275Z,100802.38
2023-04-30T02:04:41.798Z,100800.91
2023-04-30T02:05:44.871Z,100803.66
2023-04-30T02:06:47.213Z,100812.41
2023-04-30T02:07:51.258Z,100811.78
2023-04-30T02:08:53.887Z,100808.47
2023-04-30T02:09:56.394Z,100813.34
2023-04-30T02:10:58.804Z,100817.41
2023-04-30T02:12:01.277Z,100809.63
2023-04-30T02:13:03.674Z,100813.44
2023-04-30T02:14:07.016Z,100824.94
2023-04-30T02:15:10.030Z,100822.44
2023-04-30T02:16:12.468Z,100831.75
2023-04-30T02:17:14.798Z,100826.50
2023-04-30T02:18:17.108Z,100835.19
2023-04-30T02:19:19.360Z,100838.19
2023-04-30T02:20:21.767Z,100833.97
2023-04-30T02:21:24.082Z,100834.22
2023-04-30T02:22:26.746Z,100843.78
2023-04-30T02:23:29.335Z,100851.19
2023-04-30T02:24:31.614Z,100855.22
2023-04-30T02:25:38.106Z,100844.47
2023-04-30T02:26:40.456Z,100846.63
2023-04-30T02:27:42.838Z,100851.50
2023-04-30T02:28:45.752Z,100849.81
2023-04-30T02:29:48.201Z,100851.97
2023-04-30T02:30:50.492Z,100846.09
2023-04-30T02:31:52.915Z,100854.59
2023-04-30T02:32:55.295Z,100852.06
2023-04-30T02:33:57.637Z,100855.88
2023-04-30T02:35:00.016Z,100858.25
2023-04-30T02:36:02.348Z,100859.31
2023-04-30T02:37:04.907Z,100860.63
2023-04-30T02:38:07.254Z,100860.03
2023-04-30T02:39:09.489Z,100855.81
2023-04-30T02:40:12.342Z,100868.72
2023-04-30T02:41:14.839Z,100861.75
2023-04-30T02:42:17.337Z,100868.34
2023-04-30T02:43:19.556Z,100871.31
2023-04-30T02:44:21.785Z,100866.03
2023-04-30T02:45:24.207Z,100866.50
2023-04-30T02:46:26.508Z,100866.75
2023-04-30T02:47:29.086Z,100864.44
2023-04-30T02:48:31.426Z,100869.34
2023-04-30T02:49:33.661Z,100872.28
2023-04-30T02:50:35.929Z,100876.97
2023-04-30T02:51:38.189Z,100877.19
2023-04-30T02:52:40.738Z,100875.75
2023-04-30T02:53:43.030Z,100880.84
2023-04-30T02:54:45.940Z,100879.16
2023-04-30T02:55:48.298Z,100878.56
2023-04-30T02:56:50.773Z,100885.13
2023-04-30T02:57:53.035Z,100879.00
2023-04-30T02:58:55.493Z,100885.59
2023-04-30T02:59:57.814Z,100888.53
2023-04-30T03:01:00.540Z,100883.50
2023-04-30T03:02:02.797Z,100897.47
2023-04-30T03:03:06.246Z,100889.47
2023-04-30T03:04:08.663Z,100897.94
2023-04-30T03:05:11.588Z,100893.50
2023-04-30T03:06:14.492Z,100897.56
2023-04-30T03:07:17.278Z,100896.69
2023-04-30T03:08:19.604Z,100893.56
2023-04-30T03:09:21.881Z,100898.44
2023-04-30T03:10:24.181Z,100902.50
2023-04-30T03:11:26.849Z,100900.78
2023-04-30T03:12:29.160Z,100898.28
2023-04-30T03:13:31.424Z,100903.16
2023-04-30T03:14:33.677Z,100903.38
2023-04-30T03:15:36.007Z,100900.03
2023-04-30T03:16:38.353Z,100907.59
2023-04-30T03:17:41.741Z,100907.22
2023-04-30T03:18:49.759Z,100902.81
2023-04-30T03:19:52.189Z,100903.00
2023-04-30T03:20:54.855Z,100901.53
2023-04-30T03:21:57.095Z,100908.13
2023-04-30T03:22:59.368Z,100905.59
2023-04-30T03:24:01.636Z,100912.38
2023-04-30T03:25:04.082Z,100909.03
2023-04-30T03:26:06.516Z,100912.00
2023-04-30T03:27:08.879Z,100903.94
2023-04-30T03:28:11.232Z,100909.66
2023-04-30T03:29:13.586Z,100907.38
2023-04-30T03:30:16.146Z,100915.84
2023-04-30T03:31:18.551Z,100910.59
2023-04-30T03:32:21.166Z,100912.47
2023-04-30T03:33:23.510Z,100917.38
2023-04-30T03:34:25.860Z,100920.31
2023-04-30T03:35:28.163Z,100923.06
2023-04-30T03:36:30.466Z,100923.50
2023-04-30T03:37:32.692Z,100923.72
2023-04-30T03:38:35.003Z,100918.47
2023-04-30T03:39:37.471Z,100915.09
2023-04-30T03:40:39.741Z,100921.63
2023-04-30T03:41:42.248Z,100922.69
2023-04-30T03:42:44.802Z,100919.34
2023-04-30T03:43:47.157Z,100921.22
2023-04-30T03:44:49.393Z,100926.13
2023-04-30T03:45:52.416Z,100930.78
2023-04-30T03:46:55.218Z,100926.34
2023-04-30T03:47:57.485Z,100933.94
2023-04-30T03:48:59.734Z,100926.78
2023-04-30T03:50:02.965Z,100931.19
2023-04-30T03:51:05.302Z,100934.41
2023-04-30T03:52:07.629Z,100931.88
2023-04-30T03:53:09.981Z,100929.13
2023-04-30T03:54:12.327Z,100937.56
2023-04-30T03:55:14.606Z,100930.19
2023-04-30T03:56:16.988Z,100939.47
2023-04-30T03:57:19.340Z,100935.03
2023-04-30T03:58:22.212Z,100941.59
2023-04-30T03:59:24.579Z,100940.75
2023-04-30T04:00:26.984Z,100944.56
2023-04-30T04:01:30.911Z,100942.03
2023-04-30T04:02:33.954Z,100945.00
2023-04-30T04:03:36.630Z,100951.34
2023-04-30T04:04:39.485Z,100949.63
2023-04-30T04:05:42.188Z,100938.06
2023-04-30T04:06:44.665Z,100948.81
2023-04-30T04:07:47.013Z,100944.59
2023-04-30T04:08:49.762Z,100952.00
2023-04-30T04:09:52.224Z,100944.81
2023-04-30T04:10:54.837Z,100959.38
2023-04-30T04:11:58.305Z,100949.44
2023-04-30T04:13:00.974Z,100953.28
2023-04-30T04:14:03.283Z,100954.34
2023-04-30T04:15:06.133Z,100955.16
2023-04-30T04:16:09.784Z,100960.06
2023-04-30T04:17:12.219Z,100953.50
2023-04-30T04:18:14.507Z,100962.78
2023-04-30T04:19:16.836Z,100959.19
2023-04-30T04:20:20.471Z,100963.03
2023-04-30T04:21:23.358Z,100965.75
2023-04-30T04:22:25.825Z,100965.97
2023-04-30T04:23:28.659Z,100975.06
2023-04-30T04:24:30.926Z,100970.63
2023-04-30T04:25:33.637Z,100971.44
2023-04-30T04:26:37.509Z,100978.03
2023-04-30T04:27:40.068Z,100970.63
2023-04-30T04:28:42.454Z,100978.03
2023-04-30T04:29:44.725Z,100983.50
2023-04-30T04:30:47.391Z,100970.84
2023-04-30T04:31:51.385Z,100983.50
2023-04-30T04:32:54.261Z,100983.50
2023-04-30T04:33:59.314Z,100988.78
2023-04-30T04:35:02.263Z,100983.88
2023-04-30T04:36:05.429Z,100986.44
2023-04-30T04:37:09.074Z,100983.69
2023-04-30T04:38:11.670Z,100988.75
2023-04-30T04:39:14.710Z,100990.22
2023-04-30T04:40:17.532Z,100995.25
2023-04-30T04:41:19.843Z,100989.34
2023-04-30T04:42:22.176Z,100993.56
2023-04-30T04:43:24.569Z,100996.50
2023-04-30T04:44:27.418Z,101000.47
2023-04-30T04:45:32.156Z,101005.28
2023-04-30T04:46:35.585Z,101009.09
2023-04-30T04:47:38.454Z,101000.19
2023-04-30T04:48:40.772Z,101003.97
2023-04-30T04:49:43.416Z,101005.81
2023-04-30T04:50:45.829Z,101003.25
2023-04-30T04:51:48.405Z,101009.56
2023-04-30T04:52:50.716Z,101015.00
2023-04-30T04:53:53.109Z,101010.53
2023-04-30T04:54:56.118Z,101020.44
2023-04-30T04:55:58.380Z,101019.31
2023-04-30T04:57:00.660Z,101024.75
2023-04-30T04:58:03.043Z,101016.47
2023-04-30T04:59:05.338Z,101028.25
2023-04-30T05:00:08.965Z,101025.44
2023-04-30T05:01:11.585Z,101019.28
2023-04-30T05:02:13.841Z,101019.22
2023-04-30T05:03:16.191Z,101025.72
2023-04-30T05:04:18.499Z,101021.44
2023-04-30T05:05:21.088Z,101024.38
2023-04-30T05:06:23.453Z,101024.53
2023-04-30T05:07:27.156Z,101026.84
2023-04-30T05:08:29.412Z,101031.41
2023-04-30T05:09:31.681Z,101032.03
2023-04-30T05:10:35.051Z,101026.06
2023-04-30T05:11:38.633Z,101027.28
2023-04-30T05:12:40.966Z,101033.44
2023-04-30T05:13:43.342Z,101032.13
2023-04-30T05:14:45.572Z,101030.00
2023-04-30T05:15:51.643Z,101035.03
2023-04-30T05:16:53.927Z,101036.50
2023-04-30T05:17:56.252Z,101041.78
2023-04-30T05:18:58.558Z,101034.97
2023-04-30T05:20:01.159Z,101038.56
2023-04-30T05:21:04.601Z,101037.25
2023-04-30T05:22:07.050Z,101037.03
2023-04-30T05:23:09.460Z,101040.41
2023-04-30T05:24:11.706Z,101037.41
2023-04-30T05:25:14.064Z,101037.19
2023-04-30T05:26:16.683Z,101038.84
2023-04-30T05:27:19.003Z,101040.31
2023-04-30T05:28:21.550Z,101043.69
2023-04-30T05:29:23.829Z,101047.91
2023-04-30T05:30:26.135Z,101039.41
2023-04-30T05:31:28.489Z,101043.84
2023-04-30T05:32:31.176Z,101038.09
2023-04-30T05:33:33.977Z,101040.38
2023-04-30T05:34:36.907Z,101039.09
2023-04-30T05:35:39.932Z,101045.22
2023-04-30T05:36:43.190Z,101043.09
2023-04-30T05:37:46.711Z,101041.78
2023-04-30T05:38:49.048Z,101048.50
2023-04-30T05:39:51.303Z,101044.22
2023-04-30T05:40:53.573Z,101049.25
2023-04-30T05:41:56.554Z,101048.84
2023-04-30T05:42:58.868Z,101058.06
2023-04-30T05:44:03.014Z,101046.13
2023-04-30T05:45:05.813Z,101055.13
2023-04-30T05:46:08.243Z,101051.47
2023-04-30T05:47:10.696Z,101057.50
2023-04-30T05:48:13.041Z,101054.41
2023-04-30T05:49:15.433Z,101053.22
2023-04-30T05:50:17.760Z,101060.94
2023-04-30T05:51:20.026Z,101053.16
2023-04-30T05:52:22.387Z,101051.50
2023-04-30T05:53:24.636Z,101059.81
2023-04-30T05:54:26.980Z,101052.88
2023-04-30T05:55:29.295Z,101048.41
2023-04-30T05:56:31.556Z,101052.25
2023-04-30T05:57:35.423Z,101045.91
2023-04-30T05:58:37.666Z,101050.63
2023-04-30T05:59:40.027Z,101047.84
2023-04-30T06:00:42.417Z,101054.16
2023-04-30T06:01:44.781Z,101048.66
2023-04-30T06:02:47.071Z,101052.81
2023-04-30T06:03:49.470Z,101053.84
2023-04-30T06:04:51.889Z,101052.72
2023-04-30T06:05:54.598Z,101049.66
2023-04-30T06:06:56.966Z,101046.59
2023-04-30T06:07:59.211Z,101054.25
2023-04-30T06:09:01.458Z,101055.03
2023-04-30T06:10:04.196Z,101053.88
2023-04-30T06:11:06.585Z,101054.66
2023-04-30T06:12:08.980Z,101050.72
2023-04-30T06:13:11.299Z,101060.63
2023-04-30T06:14:13.997Z,101056.63
2023-04-30T06:15:16.370Z,101060.16
2023-04-30T06:16:18.807Z,101056.44
2023-04-30T06:17:21.305Z,101054.38
2023-04-30T06:18:23.764Z,101053.16
2023-04-30T06:19:26.221Z,101061.97
2023-04-30T06:20:28.563Z,101058.00
2023-04-30T06:21:30.896Z,101058.66
2023-04-30T06:22:33.868Z,101055.75
2023-04-30T06:23:36.181Z,101056.69
2023-04-30T06:24:38.607Z,101060.97
2023-04-30T06:25:41.006Z,101056.41
2023-04-30T06:26:43.360Z,101057.31
2023-04-30T06:27:45.653Z,101064.88
2023-04-30T06:28:47.904Z,101062.22
2023-04-30T06:29:50.263Z,101057.63
2023-04-30T06:30:54.370Z,101059.06
2023-04-30T06:31:56.814Z,101060.78
2023-04-30T06:32:59.148Z,101062.81
2023-04-30T06:34:01.546Z,101059.81
2023-04-30T06:35:04.367Z,101055.69
2023-04-30T06:36:06.925Z,101064.34
2023-04-30T06:37:09.185Z,101061.06
2023-04-30T06:38:11.878Z,101059.72
2023-04-30T06:39:17.243Z,101058.91
2023-04-30T06:40:20.619Z,101065.06
2023-04-30T06:41:22.931Z,101060.38
2023-04-30T06:42:25.330Z,101054.31
2023-04-30T06:43:27.637Z,101052.97
2023-04-30T06:44:29.927Z,101050.19
2023-04-30T06:45:34.034Z,101058.03
2023-04-30T06:46:36.502Z,101054.41
2023-04-30T06:47:38.975Z,101049.16
2023-04-30T06:48:41.256Z,101050.28
2023-04-30T06:49:43.581Z,101047.50
2023-04-30T06:50:46.014Z,101052.25
2023-04-30T06:51:48.254Z,101053.09
2023-04-30T06:52:50.556Z,101059.50
2023-04-30T06:53:53.448Z,101054.22
2023-04-30T06:54:56.218Z,101057.00
2023-04-30T06:55:58.548Z,101057.00
2023-04-30T06:57:02.086Z,101058.91
2023-04-30T06:58:06.191Z,101059.19
2023-04-30T06:59:08.959Z,101062.22
2023-04-30T07:00:12.484Z,101070.28
2023-04-30T07:01:14.736Z,101068.88
2023-04-30T07:02:17.367Z,101066.59
2023-04-30T07:03:20.459Z,101069.13
2023-04-30T07:04:24.733Z,101066.31
2023-04-30T07:05:27.145Z,101065.19
2023-04-30T07:06:29.562Z,101064.34
2023-04-30T07:07:32.693Z,101068.22
2023-04-30T07:08:35.116Z,101072.09
2023-04-30T07:09:37.785Z,101070.13
2023-04-30T07:10:40.028Z,101070.09
2023-04-30T07:11:42.917Z,101067.28
2023-04-30T07:12:45.589Z,101070.59
2023-04-30T07:13:47.868Z,101072.50
2023-04-30T07:14:50.187Z,101064.97
2023-04-30T07:15:52.994Z,101074.94
2023-04-30T07:16:56.540Z,101063.75
2023-04-30T07:17:58.866Z,101068.19
2023-04-30T07:19:01.221Z,101071.78
2023-04-30T07:20:05.048Z,101072.63
2023-04-30T07:21:08.476Z,101074.25
2023-04-30T07:22:10.841Z,101071.69
2023-04-30T07:23:13.121Z,101073.63
2023-04-30T07:24:15.645Z,101070.53
2023-04-30T07:25:18.073Z,101068.00
2023-04-30T07:26:21.083Z,101066.84
2023-04-30T07:27:23.600Z,101065.13
2023-04-30T07:28:25.939Z,101068.69
2023-04-30T07:29:29.053Z,101064.19
2023-04-30T07:30:31.377Z,101068.59
2023-04-30T07:31:34.391Z,101065.75
2023-04-30T07:32:38.007Z,101063.53
2023-04-30T07:33:40.310Z,101069.34
2023-04-30T07:34:43.078Z,101065.41
2023-04-30T07:35:45.363Z,101064.59
2023-04-30T07:36:48.689Z,101070.69
2023-04-30T07:37:51.025Z,101072.06
2023-04-30T07:38:54.201Z,101069.00
2023-04-30T07:39:57.176Z,101066.13
2023-04-30T07:40:59.598Z,101068.06
2023-04-30T07:42:03.212Z,101065.22
2023-04-30T07:43:05.735Z,101071.88
2023-04-30T07:44:08.022Z,101071.03
2023-04-30T07:45:10.477Z,101072.41
2023-04-30T07:46:12.808Z,101072.91
2023-04-30T07:47:15.477Z,101075.13
2023-04-30T07:48:18.168Z,101073.66
2023-04-30T07:49:20.552Z,101078.91
2023-04-30T07:50:23.083Z,101069.28
2023-04-30T07:51:26.166Z,101074.53
2023-04-30T07:52:28.660Z,101076.97
2023-04-30T07:53:31.074Z,101071.31
2023-04-30T07:54:36.638Z,101080.47
2023-04-30T07:55:38.916Z,101071.69
2023-04-30T07:56:42.121Z,101079.72
2023-04-30T07:57:44.468Z,101067.63
2023-04-30T07:58:46.846Z,101075.13
2023-04-30T07:59:51.434Z,101079.31
2023-04-30T08:00:55.471Z,101071.50
2023-04-30T08:01:58.224Z,101077.91
2023-04-30T08:03:01.178Z,101077.09
2023-04-30T08:04:03.870Z,101076.28
2023-04-30T08:05:06.589Z,101075.97
2023-04-30T08:06:08.930Z,101077.09
2023-04-30T08:07:11.283Z,101075.66
2023-04-30T08:08:13.676Z,101079.25
2023-04-30T08:09:16.001Z,101073.34
2023-04-30T08:10:18.542Z,101075.53
2023-04-30T08:11:20.870Z,101080.22
2023-04-30T08:12:23.306Z,101067.56
2023-04-30T08:13:25.532Z,101074.53
2023-04-30T08:14:27.986Z,101076.22
2023-04-30T08:15:30.751Z,101079.88
2023-04-30T08:16:33.448Z,101083.19
2023-04-30T08:17:36.323Z,101077.34
2023-04-30T08:18:45.013Z,101083.88
2023-04-30T08:19:47.369Z,101082.28
2023-04-30T08:20:50.026Z,101083.19
2023-04-30T08:21:52.482Z,101084.06
2023-04-30T08:22:54.764Z,101079.97
2023-04-30T08:23:57.444Z,101079.22
2023-04-30T08:25:02.113Z,101081.53
2023-04-30T08:26:04.602Z,101083.56
2023-04-30T08:27:07.212Z,101089.75
2023-04-30T08:28:09.644Z,101085.63
2023-04-30T08:29:11.921Z,101087.88
2023-04-30T08:30:14.650Z,101085.38
2023-04-30T08:31:18.177Z,101081.44
2023-04-30T08:32:21.606Z,101084.75
2023-04-30T08:33:25.585Z,101089.53
2023-04-30T08:34:27.945Z,101095.13
2023-04-30T08:35:30.603Z,101094.53
2023-04-30T08:36:32.959Z,101084.16
2023-04-30T08:37:35.888Z,101094.78
2023-04-30T08:38:38.279Z,101091.13
2023-04-30T08:39:40.618Z,101096.44
2023-04-30T08:40:51.755Z,101090.00
2023-04-30T08:41:56.365Z,101090.84
2023-04-30T08:43:09.741Z,101092.78
2023-04-30T08:44:13.539Z,101091.41
2023-04-30T08:45:16.468Z,101096.19
2023-04-30T08:46:21.208Z,101090.34
2023-04-30T08:47:24.405Z,101096.56
2023-04-30T08:48:28.362Z,101087.09
2023-04-30T08:49:33.201Z,101096.06
2023-04-30T08:50:37.136Z,101085.50
2023-04-30T08:51:40.196Z,101091.66
2023-04-30T08:52:43.821Z,101086.38
2023-04-30T08:53:47.413Z,101087.28
2023-04-30T08:54:51.415Z,101088.72
2023-04-30T08:55:53.836Z,101084.31
2023-04-30T08:56:56.206Z,101086.34
2023-04-30T08:57:59.646Z,101084.66
2023-04-30T08:59:01.951Z,101084.09
2023-04-30T09:00:06.441Z,101084.41
2023-04-30T09:01:10.428Z,101081.59
2023-04-30T09:02:12.922Z,101084.41
2023-04-30T09:03:15.847Z,101079.63
2023-04-30T09:04:18.310Z,101076.84
2023-04-30T09:05:20.846Z,101079.63
2023-04-30T09:06:23.477Z,101081.00
2023-04-30T09:07:29.197Z,101079.31
2023-04-30T09:08:42.584Z,101088.47
2023-04-30T09:09:44.918Z,101086.44
2023-04-30T09:10:47.234Z,101088.59
2023-04-30T09:11:49.616Z,101083.00
2023-04-30T09:13:08.274Z,101086.00
2023-04-30T09:14:10.770Z,101082.41
2023-04-30T09:15:13.479Z,101091.34
2023-04-30T09:16:15.812Z,101087.09
2023-04-30T09:17:23.246Z,101079.22
2023-04-30T09:18:25.573Z,101085.06
2023-04-30T09:19:30.442Z,101087.88
2023-04-30T09:20:32.933Z,101077.72
2023-04-30T09:21:36.753Z,101087.19
2023-04-30T09:22:41.508Z,101087.97
2023-04-30T09:24:05.790Z,101083.44
2023-04-30T09:25:09.721Z,101081.69
2023-04-30T09:26:22.155Z,101081.31
2023-04-30T09:27:24.531Z,101074.28
2023-04-30T09:28:28.986Z,101082.97
2023-04-30T09:29:37.981Z,101086.00
2023-04-30T09:30:44.198Z,101088.72
2023-04-30T09:31:47.796Z,101080.03
2023-04-30T09:32:59.126Z,101091.41
2023-04-30T09:34:01.502Z,101088.09
2023-04-30T09:35:03.905Z,101079.72
2023-04-30T09:36:10.166Z,101081.38
2023-04-30T09:37:12.695Z,101085.31
2023-04-30T09:38:28.424Z,101081.69
2023-04-30T09:39:32.066Z,101080.41
2023-04-30T09:40:37.202Z,101078.19
2023-04-30T09:41:40.760Z,101084.91
2023-04-30T09:42:59.269Z,101081.56
2023-04-30T09:44:02.296Z,101091.41
2023-04-30T09:45:05.435Z,101080.50
2023-04-30T09:46:07.739Z,101081.09
2023-04-30T09:47:16.238Z,101078.28
2023-04-30T09:48:23.002Z,101081.41
2023-04-30T09:49:26.719Z,101080.03
2023-04-30T09:50:38.976Z,101080.34
2023-04-30T09:52:04.581Z,101073.38
2023-04-30T09:53:13.599Z,101079.78
2023-04-30T09:54:17.681Z,101075.94
2023-04-30T09:55:21.998Z,101080.16
2023-04-30T09:56:29.145Z,101071.00
2023-04-30T09:57:32.597Z,101069.94
2023-04-30T09:58:39.108Z,101074.75
2023-04-30T09:59:46.445Z,101071.19
2023-04-30T10:00:52.188Z,101069.00
2023-04-30T10:01:55.640Z,101074.66
2023-04-30T10:02:59.816Z,101071.63
2023-04-30T10:04:03.107Z,101063.53
2023-04-30T10:05:06.376Z,101061.91
2023-04-30T10:06:10.119Z,101061.38
2023-04-30T10:07:17.622Z,101055.78
2023-04-30T10:08:44.157Z,101061.69
2023-04-30T10:09:58.026Z,101051.91
2023-04-30T10:11:05.630Z,101059.78
2023-04-30T10:12:20.845Z,101061.22
2023-04-30T10:13:28.708Z,101057.03
2023-04-30T10:14:34.413Z,101046.44
2023-04-30T10:15:41.827Z,101057.38
2023-04-30T10:16:51.797Z,101057.13
2023-04-30T10:18:07.196Z,101046.81
2023-04-30T10:19:15.186Z,101061.09
2023-04-30T10:20:19.205Z,101041.28
2023-04-30T10:21:25.052Z,101046.66
2023-04-30T10:22:28.540Z,101048.06
2023-04-30T10:23:30.964Z,101042.75
2023-04-30T10:24:34.850Z,101044.16
2023-04-30T10:25:39.096Z,101046.13
2023-04-30T10:26:41.820Z,101043.34
2023-04-30T10:27:44.202Z,101043.91
2023-04-30T10:28:50.593Z,101045.53
2023-04-30T10:29:54.320Z,101044.41
2023-04-30T10:30:57.939Z,101041.88
2023-04-30T10:32:01.525Z,101033.50
2023-04-30T10:33:16.986Z,101039.59
2023-04-30T10:34:36.082Z,101045.69
2023-04-30T10:36:04.501Z,101037.84
2023-04-30T10:37:19.472Z,101048.44
2023-04-30T10:38:25.254Z,101038.38
2023-04-30T10:39:29.097Z,101039.75
2023-04-30T10:40:37.189Z,101037.78
2023-04-30T10:41:39.700Z,101034.16
2023-04-30T10:42:55.152Z,101040.59
2023-04-30T10:44:01.847Z,101037.25
2023-04-30T10:45:05.110Z,101039.75
2023-04-30T10:46:08.927Z,101031.03
2023-04-30T10:47:12.494Z,101039.41
2023-04-30T10:48:16.800Z,101033.28
2023-04-30T10:49:26.542Z,101024.06
2023-04-30T10:50:30.383Z,101026.84
2023-04-30T10:51:47.724Z,101029.91
2023-04-30T10:53:03.270Z,101033.25
2023-04-30T10:54:05.751Z,101022.88
2023-04-30T10:55:09.441Z,101025.13
2023-04-30T10:56:32.609Z,101033.56
2023-04-30T10:57:46.839Z,101036.41
2023-04-30T10:58:50.849Z,101020.53
2023-04-30T11:00:16.853Z,101028.34
2023-04-30T11:01:19.295Z,101026.78
2023-04-30T11:02:22.211Z,101026.53
2023-04-30T11:03:25.288Z,101022.34
2023-04-30T11:04:28.331Z,101024.59
2023-04-30T11:05:38.506Z,101026.88
2023-04-30T11:06:54.921Z,101022.72
2023-04-30T11:07:58.580Z,101031.41
2023-04-30T11:09:04.573Z,101032.50
2023-04-30T11:10:09.026Z,101026.38
2023-04-30T11:11:12.219Z,101030.84
2023-04-30T11:12:28.768Z,101027.50
2023-04-30T11:13:47.139Z,101020.53
2023-04-30T11:14:50.575Z,101016.66
2023-04-30T11:15:53.022Z,101018.09
2023-04-30T11:16:55.382Z,101013.09
2023-04-30T11:17:59.714Z,101010.31
2023-04-30T11:19:07.824Z,101009.47
2023-04-30T11:20:14.501Z,101009.47
2023-04-30T11:21:16.736Z,101005.03
2023-04-30T11:22:24.752Z,101020.66
2023-04-30T11:23:38.839Z,101012.28
2023-04-30T11:24:59.695Z,101014.22
2023-04-30T11:26:02.155Z,101012.28
2023-04-30T11:27:09.056Z,101015.34
2023-04-30T11:28:16.632Z,101004.47
2023-04-30T11:29:19.799Z,101007.81
2023-04-30T11:30:22.472Z,101000.25
2023-04-30T11:31:33.701Z,100997.75
2023-04-30T11:32:37.773Z,101005.31
2023-04-30T11:33:41.578Z,101000.28
2023-04-30T11:34:47.427Z,101011.47
2023-04-30T11:35:53.308Z,101008.69
2023-04-30T11:36:59.570Z,101015.69
2023-04-30T11:38:02.559Z,101008.16
2023-04-30T11:39:08.166Z,101018.47
2023-04-30T11:40:18.358Z,101014.88
2023-04-30T11:41:21.578Z,101017.09
2023-04-30T11:42:23.937Z,101012.94
2023-04-30T11:43:35.995Z,101014.34
2023-04-30T11:44:38.941Z,101012.16
2023-04-30T11:45:41.296Z,101010.50
2023-04-30T11:46:43.626Z,101013.59
2023-04-30T11:47:48.130Z,101011.91
2023-04-30T11:48:51.339Z,101018.09
2023-04-30T11:49:53.865Z,101012.50
2023-04-30T11:50:56.468Z,101008.63
2023-04-30T11:51:58.895Z,101006.66
2023-04-30T11:53:05.699Z,101002.50
2023-04-30T11:54:08.917Z,101007.78
2023-04-30T11:55:16.737Z,101001.13
2023-04-30T11:56:24.413Z,101005.03
2023-04-30T11:57:26.827Z,100998.94
2023-04-30T11:58:33.357Z,100997.56
2023-04-30T11:59:42.354Z,100997.84
2023-04-30T12:00:44.644Z,100993.69
2023-04-30T12:01:46.987Z,101000.69
2023-04-30T12:02:50.518Z,100991.44
2023-04-30T12:03:55.592Z,100995.91
2023-04-30T12:04:59.014Z,100991.19
2023-04-30T12:06:02.590Z,100987.56
2023-04-30T12:07:09.071Z,100992.91
2023-04-30T12:08:12.226Z,100995.69
2023-04-30T12:09:14.558Z,100994.91
2023-04-30T12:10:19.784Z,100989.63
2023-04-30T12:11:29.930Z,100990.19
2023-04-30T12:12:32.599Z,100986.00
2023-04-30T12:13:36.010Z,100995.53
2023-04-30T12:14:38.650Z,100985.78
2023-04-30T12:15:42.482Z,100989.69